Chunchula, Alabama
Current Conditions -  °F | °C
As of 3:56 PM on Monday 22 Dec 2014 (Local Time) from KMOB Reporting Station
Overcast Overcast  
Wind Chill: 69°   Ceiling: 1300
Heat Index: 69°   Visibility: 10mi
Dew Point: 66°   Wind: 10mph
Humidity: 90%   Direction: 200°SSW
Pressure: 29.76"   Gusts: NA
Location:  30.92°N, 88.2°W
Report Text: KMOB 222156Z 20009KT 10SM BKN013 OVC034 21/19 A2976 RMK AO2 SLP076 T02060189
Loading
Personal Weather Stations






























Interactive Weather Map New forecast layout! Learn more

10-Day Weather Forecast

Advertisements
Track Severe Weather on mobile